sensor_id;sensor_type;location;lat;lon;timestamp;P1;durP1;ratioP1;P2;durP2;ratioP2
70002;SDS011;57341;51.984;5.088;2022-08-19T00:01:53;25.02;;;13.20;;
70002;SDS011;57341;51.984;5.088;2022-08-19T00:04:22;22.35;;;11.95;;
70002;SDS011;57341;51.984;5.088;2022-08-19T00:07:07;27.95;;;13.90;;
70002;SDS011;57341;51.984;5.088;2022-08-19T00:09:34;28.52;;;15.02;;
70002;SDS011;57341;51.984;5.088;2022-08-19T00:12:04;29.48;;;15.15;;
70002;SDS011;57341;51.984;5.088;2022-08-19T00:14:32;28.63;;;14.65;;
70002;SDS011;57341;51.984;5.088;2022-08-19T00:16:59;27.58;;;15.30;;
70002;SDS011;57341;51.984;5.088;2022-08-19T00:19:26;28.38;;;14.50;;
70002;SDS011;57341;51.984;5.088;2022-08-19T00:21:53;31.48;;;16.05;;
70002;SDS011;57341;51.984;5.088;2022-08-19T00:24:22;31.75;;;16.92;;
70002;SDS011;57341;51.984;5.088;2022-08-19T00:26:49;40.45;;;20.10;;
70002;SDS011;57341;51.984;5.088;2022-08-19T00:29:18;40.58;;;21.73;;
70002;SDS011;57341;51.984;5.088;2022-08-19T00:31:46;46.80;;;23.23;;
70002;SDS011;57341;51.984;5.088;2022-08-19T00:34:16;45.03;;;24.63;;
70002;SDS011;57341;51.984;5.088;2022-08-19T00:36:43;45.20;;;22.58;;
70002;SDS011;57341;51.984;5.088;2022-08-19T00:39:14;41.78;;;22.05;;
70002;SDS011;57341;51.984;5.088;2022-08-19T00:41:42;44.90;;;23.02;;
70002;SDS011;57341;51.984;5.088;2022-08-19T00:44:14;43.28;;;21.85;;
70002;SDS011;57341;51.984;5.088;2022-08-19T00:46:51;43.47;;;21.80;;
70002;SDS011;57341;51.984;5.088;2022-08-19T00:52:13;42.65;;;20.55;;
70002;SDS011;57341;51.984;5.088;2022-08-19T00:54:43;43.33;;;22.02;;
70002;SDS011;57341;51.984;5.088;2022-08-19T00:57:19;44.42;;;22.10;;
70002;SDS011;57341;51.984;5.088;2022-08-19T00:59:56;42.28;;;21.48;;
70002;SDS011;57341;51.984;5.088;2022-08-19T01:02:29;43.72;;;21.80;;
70002;SDS011;57341;51.984;5.088;2022-08-19T01:04:59;42.58;;;21.10;;
70002;SDS011;57341;51.984;5.088;2022-08-19T01:07:34;44.85;;;21.30;;
70002;SDS011;57341;51.984;5.088;2022-08-19T01:10:09;42.00;;;20.42;;
70002;SDS011;57341;51.984;5.088;2022-08-19T01:12:39;43.35;;;20.40;;
70002;SDS011;57341;51.984;5.088;2022-08-19T01:15:07;44.10;;;20.58;;
70002;SDS011;57341;51.984;5.088;2022-08-19T01:17:38;40.90;;;20.63;;
70002;SDS011;57341;51.984;5.088;2022-08-19T01:20:10;45.65;;;22.40;;
70002;SDS011;57341;51.984;5.088;2022-08-19T01:22:45;46.10;;;22.50;;
70002;SDS011;57341;51.984;5.088;2022-08-19T01:25:15;46.45;;;22.30;;
70002;SDS011;57341;51.984;5.088;2022-08-19T01:27:46;51.35;;;24.60;;
70002;SDS011;57341;51.984;5.088;2022-08-19T01:30:20;54.60;;;25.98;;
70002;SDS011;57341;51.984;5.088;2022-08-19T01:32:53;54.20;;;26.48;;
70002;SDS011;57341;51.984;5.088;2022-08-19T01:35:24;51.42;;;24.13;;
70002;SDS011;57341;51.984;5.088;2022-08-19T01:37:55;54.40;;;24.88;;
70002;SDS011;57341;51.984;5.088;2022-08-19T01:40:26;54.13;;;25.70;;
70002;SDS011;57341;51.984;5.088;2022-08-19T01:42:55;51.88;;;25.13;;
70002;SDS011;57341;51.984;5.088;2022-08-19T01:45:24;52.90;;;25.00;;
70002;SDS011;57341;51.984;5.088;2022-08-19T01:47:52;53.17;;;24.20;;
70002;SDS011;57341;51.984;5.088;2022-08-19T01:50:28;56.85;;;27.33;;
70002;SDS011;57341;51.984;5.088;2022-08-19T01:53:00;56.88;;;26.42;;
70002;SDS011;57341;51.984;5.088;2022-08-19T01:55:33;57.53;;;25.10;;
70002;SDS011;57341;51.984;5.088;2022-08-19T01:58:08;55.03;;;25.40;;
70002;SDS011;57341;51.984;5.088;2022-08-19T02:00:40;59.25;;;27.27;;
70002;SDS011;57341;51.984;5.088;2022-08-19T02:03:08;54.83;;;25.50;;
70002;SDS011;57341;51.984;5.088;2022-08-19T02:05:39;50.30;;;23.42;;
70002;SDS011;57341;51.984;5.088;2022-08-19T02:08:07;54.60;;;25.25;;
70002;SDS011;57341;51.984;5.088;2022-08-19T02:10:37;55.95;;;26.27;;
70002;SDS011;57341;51.984;5.088;2022-08-19T02:13:09;56.78;;;27.73;;
70002;SDS011;57341;51.984;5.088;2022-08-19T02:15:38;56.13;;;26.25;;
70002;SDS011;57341;51.984;5.088;2022-08-19T02:18:05;60.97;;;27.42;;
70002;SDS011;57341;51.984;5.088;2022-08-19T02:20:33;61.10;;;28.02;;
70002;SDS011;57341;51.984;5.088;2022-08-19T02:23:02;54.70;;;24.55;;
70002;SDS011;57341;51.984;5.088;2022-08-19T02:25:29;54.38;;;25.30;;
70002;SDS011;57341;51.984;5.088;2022-08-19T02:28:02;51.40;;;22.67;;
70002;SDS011;57341;51.984;5.088;2022-08-19T02:30:29;52.60;;;25.17;;
70002;SDS011;57341;51.984;5.088;2022-08-19T02:32:56;55.30;;;24.52;;
70002;SDS011;57341;51.984;5.088;2022-08-19T02:35:26;47.50;;;23.50;;
70002;SDS011;57341;51.984;5.088;2022-08-19T02:37:53;47.72;;;24.35;;
70002;SDS011;57341;51.984;5.088;2022-08-19T02:40:47;51.22;;;25.55;;
70002;SDS011;57341;51.984;5.088;2022-08-19T02:43:18;50.00;;;24.52;;
70002;SDS011;57341;51.984;5.088;2022-08-19T02:45:49;52.15;;;25.30;;
70002;SDS011;57341;51.984;5.088;2022-08-19T02:48:21;51.63;;;24.67;;
70002;SDS011;57341;51.984;5.088;2022-08-19T02:50:50;50.58;;;24.73;;
70002;SDS011;57341;51.984;5.088;2022-08-19T02:53:28;54.38;;;26.25;;
70002;SDS011;57341;51.984;5.088;2022-08-19T02:55:55;55.80;;;25.50;;
70002;SDS011;57341;51.984;5.088;2022-08-19T02:58:23;51.65;;;24.67;;
70002;SDS011;57341;51.984;5.088;2022-08-19T03:00:54;51.53;;;25.63;;
70002;SDS011;57341;51.984;5.088;2022-08-19T03:03:22;60.58;;;26.85;;
70002;SDS011;57341;51.984;5.088;2022-08-19T03:05:50;60.03;;;28.33;;
70002;SDS011;57341;51.984;5.088;2022-08-19T03:08:22;60.65;;;28.30;;
70002;SDS011;57341;51.984;5.088;2022-08-19T03:10:50;63.42;;;27.35;;
70002;SDS011;57341;51.984;5.088;2022-08-19T03:13:19;57.88;;;28.23;;
70002;SDS011;57341;51.984;5.088;2022-08-19T03:15:46;60.70;;;27.85;;
70002;SDS011;57341;51.984;5.088;2022-08-19T03:18:14;56.30;;;25.45;;
70002;SDS011;57341;51.984;5.088;2022-08-19T03:20:46;58.33;;;27.73;;
70002;SDS011;57341;51.984;5.088;2022-08-19T03:23:16;63.08;;;28.05;;
70002;SDS011;57341;51.984;5.088;2022-08-19T03:25:44;56.53;;;27.08;;
70002;SDS011;57341;51.984;5.088;2022-08-19T03:28:33;54.47;;;26.20;;
70002;SDS011;57341;51.984;5.088;2022-08-19T03:31:05;57.92;;;26.13;;
70002;SDS011;57341;51.984;5.088;2022-08-19T03:33:53;64.07;;;27.35;;
70002;SDS011;57341;51.984;5.088;2022-08-19T03:36:22;60.63;;;27.30;;
70002;SDS011;57341;51.984;5.088;2022-08-19T03:38:55;61.13;;;28.00;;
70002;SDS011;57341;51.984;5.088;2022-08-19T03:41:29;67.90;;;29.83;;
70002;SDS011;57341;51.984;5.088;2022-08-19T03:44:18;73.57;;;30.50;;
70002;SDS011;57341;51.984;5.088;2022-08-19T03:46:48;65.57;;;29.77;;
70002;SDS011;57341;51.984;5.088;2022-08-19T03:49:17;67.32;;;29.52;;
70002;SDS011;57341;51.984;5.088;2022-08-19T03:51:45;68.63;;;30.52;;
70002;SDS011;57341;51.984;5.088;2022-08-19T03:54:14;66.07;;;30.60;;
70002;SDS011;57341;51.984;5.088;2022-08-19T03:56:44;66.32;;;29.75;;
70002;SDS011;57341;51.984;5.088;2022-08-19T03:59:14;69.15;;;29.90;;
70002;SDS011;57341;51.984;5.088;2022-08-19T04:01:46;66.65;;;30.90;;
70002;SDS011;57341;51.984;5.088;2022-08-19T04:04:13;74.05;;;31.63;;
70002;SDS011;57341;51.984;5.088;2022-08-19T04:06:40;78.03;;;33.15;;
70002;SDS011;57341;51.984;5.088;2022-08-19T04:09:10;80.72;;;32.40;;
70002;SDS011;57341;51.984;5.088;2022-08-19T04:11:39;75.82;;;32.70;;
70002;SDS011;57341;51.984;5.088;2022-08-19T04:14:15;78.97;;;33.17;;
70002;SDS011;57341;51.984;5.088;2022-08-19T04:16:45;74.45;;;32.53;;
70002;SDS011;57341;51.984;5.088;2022-08-19T04:19:13;84.18;;;34.58;;
70002;SDS011;57341;51.984;5.088;2022-08-19T04:21:42;81.57;;;32.70;;
70002;SDS011;57341;51.984;5.088;2022-08-19T04:24:14;75.35;;;31.58;;
70002;SDS011;57341;51.984;5.088;2022-08-19T04:26:42;77.63;;;32.20;;
70002;SDS011;57341;51.984;5.088;2022-08-19T04:29:13;76.55;;;34.40;;
70002;SDS011;57341;51.984;5.088;2022-08-19T04:31:43;79.03;;;33.67;;
70002;SDS011;57341;51.984;5.088;2022-08-19T04:34:12;71.15;;;29.83;;
70002;SDS011;57341;51.984;5.088;2022-08-19T04:36:41;69.80;;;29.65;;
70002;SDS011;57341;51.984;5.088;2022-08-19T04:41:40;76.97;;;31.25;;
70002;SDS011;57341;51.984;5.088;2022-08-19T04:44:27;77.80;;;29.20;;
70002;SDS011;57341;51.984;5.088;2022-08-19T04:47:00;59.60;;;22.77;;
70002;SDS011;57341;51.984;5.088;2022-08-19T04:49:39;76.68;;;29.77;;
70002;SDS011;57341;51.984;5.088;2022-08-19T04:52:07;75.07;;;25.20;;
70002;SDS011;57341;51.984;5.088;2022-08-19T04:54:34;78.35;;;29.05;;
70002;SDS011;57341;51.984;5.088;2022-08-19T04:59:34;73.00;;;26.92;;
70002;SDS011;57341;51.984;5.088;2022-08-19T05:02:01;73.40;;;30.05;;
70002;SDS011;57341;51.984;5.088;2022-08-19T05:04:29;71.93;;;28.80;;
70002;SDS011;57341;51.984;5.088;2022-08-19T05:06:59;90.28;;;34.25;;
70002;SDS011;57341;51.984;5.088;2022-08-19T05:09:28;91.60;;;33.17;;
70002;SDS011;57341;51.984;5.088;2022-08-19T05:12:16;83.25;;;29.50;;
70002;SDS011;57341;51.984;5.088;2022-08-19T05:14:43;81.53;;;29.92;;
70002;SDS011;57341;51.984;5.088;2022-08-19T05:17:13;88.07;;;30.52;;
70002;SDS011;57341;51.984;5.088;2022-08-19T05:20:01;76.82;;;25.50;;
70002;SDS011;57341;51.984;5.088;2022-08-19T05:22:48;86.50;;;31.15;;
70002;SDS011;57341;51.984;5.088;2022-08-19T05:25:16;56.25;;;21.10;;
70002;SDS011;57341;51.984;5.088;2022-08-19T05:27:46;81.13;;;26.50;;
70002;SDS011;57341;51.984;5.088;2022-08-19T05:30:14;69.80;;;25.08;;
70002;SDS011;57341;51.984;5.088;2022-08-19T05:32:42;64.30;;;22.92;;
70002;SDS011;57341;51.984;5.088;2022-08-19T05:35:09;80.00;;;30.08;;
70002;SDS011;57341;51.984;5.088;2022-08-19T05:37:36;83.20;;;32.55;;
70002;SDS011;57341;51.984;5.088;2022-08-19T05:40:07;91.60;;;31.60;;
70002;SDS011;57341;51.984;5.088;2022-08-19T05:42:35;92.13;;;33.33;;
70002;SDS011;57341;51.984;5.088;2022-08-19T05:45:03;49.33;;;17.45;;
70002;SDS011;57341;51.984;5.088;2022-08-19T05:47:30;79.78;;;28.13;;
70002;SDS011;57341;51.984;5.088;2022-08-19T05:49:58;99.97;;;32.60;;
70002;SDS011;57341;51.984;5.088;2022-08-19T05:52:25;95.70;;;31.58;;
70002;SDS011;57341;51.984;5.088;2022-08-19T05:54:55;104.15;;;35.63;;
70002;SDS011;57341;51.984;5.088;2022-08-19T05:57:23;106.55;;;33.03;;
70002;SDS011;57341;51.984;5.088;2022-08-19T05:59:51;90.18;;;30.65;;
70002;SDS011;57341;51.984;5.088;2022-08-19T06:02:27;95.65;;;31.52;;
70002;SDS011;57341;51.984;5.088;2022-08-19T06:04:57;94.55;;;32.13;;
70002;SDS011;57341;51.984;5.088;2022-08-19T06:07:23;40.75;;;16.67;;
70002;SDS011;57341;51.984;5.088;2022-08-19T06:09:51;73.18;;;23.58;;
70002;SDS011;57341;51.984;5.088;2022-08-19T06:12:28;42.85;;;18.92;;
70002;SDS011;57341;51.984;5.088;2022-08-19T06:14:59;47.45;;;26.13;;
70002;SDS011;57341;51.984;5.088;2022-08-19T06:17:28;60.75;;;22.00;;
70002;SDS011;57341;51.984;5.088;2022-08-19T06:19:57;47.40;;;21.13;;
70002;SDS011;57341;51.984;5.088;2022-08-19T06:22:25;63.30;;;22.45;;
70002;SDS011;57341;51.984;5.088;2022-08-19T06:24:53;36.10;;;19.13;;
70002;SDS011;57341;51.984;5.088;2022-08-19T06:27:20;34.47;;;19.42;;
70002;SDS011;57341;51.984;5.088;2022-08-19T06:29:49;85.93;;;27.58;;
70002;SDS011;57341;51.984;5.088;2022-08-19T06:32:16;73.55;;;24.10;;
70002;SDS011;57341;51.984;5.088;2022-08-19T06:34:45;80.10;;;26.52;;
70002;SDS011;57341;51.984;5.088;2022-08-19T06:37:15;79.40;;;27.05;;
70002;SDS011;57341;51.984;5.088;2022-08-19T06:39:43;60.92;;;19.67;;
70002;SDS011;57341;51.984;5.088;2022-08-19T06:42:11;66.18;;;18.05;;
70002;SDS011;57341;51.984;5.088;2022-08-19T06:44:44;88.70;;;27.77;;
70002;SDS011;57341;51.984;5.088;2022-08-19T06:47:15;82.30;;;25.10;;
70002;SDS011;57341;51.984;5.088;2022-08-19T06:49:57;66.75;;;25.60;;
70002;SDS011;57341;51.984;5.088;2022-08-19T06:52:29;77.88;;;22.63;;
70002;SDS011;57341;51.984;5.088;2022-08-19T06:55:00;75.75;;;26.48;;
70002;SDS011;57341;51.984;5.088;2022-08-19T06:57:31;79.07;;;27.80;;
70002;SDS011;57341;51.984;5.088;2022-08-19T06:59:59;74.35;;;25.58;;
70002;SDS011;57341;51.984;5.088;2022-08-19T07:02:26;53.35;;;22.88;;
70002;SDS011;57341;51.984;5.088;2022-08-19T07:04:54;53.67;;;23.52;;
70002;SDS011;57341;51.984;5.088;2022-08-19T07:07:24;57.80;;;24.92;;
70002;SDS011;57341;51.984;5.088;2022-08-19T07:09:51;80.63;;;25.80;;
70002;SDS011;57341;51.984;5.088;2022-08-19T07:12:25;76.68;;;22.38;;
70002;SDS011;57341;51.984;5.088;2022-08-19T07:15:02;85.88;;;26.73;;
70002;SDS011;57341;51.984;5.088;2022-08-19T07:17:30;86.22;;;28.05;;
70002;SDS011;57341;51.984;5.088;2022-08-19T07:22:32;65.82;;;21.90;;
70002;SDS011;57341;51.984;5.088;2022-08-19T07:25:02;59.15;;;23.00;;
70002;SDS011;57341;51.984;5.088;2022-08-19T07:27:30;58.03;;;23.70;;
70002;SDS011;57341;51.984;5.088;2022-08-19T07:29:59;57.95;;;24.65;;
70002;SDS011;57341;51.984;5.088;2022-08-19T07:32:26;58.28;;;24.63;;
70002;SDS011;57341;51.984;5.088;2022-08-19T07:34:53;46.60;;;19.75;;
70002;SDS011;57341;51.984;5.088;2022-08-19T07:37:22;46.78;;;20.42;;
70002;SDS011;57341;51.984;5.088;2022-08-19T07:39:55;42.63;;;18.77;;
70002;SDS011;57341;51.984;5.088;2022-08-19T07:42:23;32.17;;;13.45;;
70002;SDS011;57341;51.984;5.088;2022-08-19T07:44:50;47.80;;;21.48;;
70002;SDS011;57341;51.984;5.088;2022-08-19T07:47:17;39.25;;;16.65;;
70002;SDS011;57341;51.984;5.088;2022-08-19T07:50:06;29.92;;;13.73;;
70002;SDS011;57341;51.984;5.088;2022-08-19T07:52:36;41.35;;;20.17;;
70002;SDS011;57341;51.984;5.088;2022-08-19T07:55:06;40.05;;;17.00;;
70002;SDS011;57341;51.984;5.088;2022-08-19T07:57:54;36.95;;;18.08;;
70002;SDS011;57341;51.984;5.088;2022-08-19T08:00:22;39.60;;;20.23;;
70002;SDS011;57341;51.984;5.088;2022-08-19T08:02:50;28.98;;;13.40;;
70002;SDS011;57341;51.984;5.088;2022-08-19T08:05:20;35.67;;;17.25;;
70002;SDS011;57341;51.984;5.088;2022-08-19T08:08:09;35.97;;;18.30;;
70002;SDS011;57341;51.984;5.088;2022-08-19T08:10:55;41.72;;;21.40;;
70002;SDS011;57341;51.984;5.088;2022-08-19T08:13:23;30.75;;;13.82;;
70002;SDS011;57341;51.984;5.088;2022-08-19T08:15:51;43.90;;;21.27;;
70002;SDS011;57341;51.984;5.088;2022-08-19T08:18:22;26.42;;;14.18;;
70002;SDS011;57341;51.984;5.088;2022-08-19T08:20:56;28.13;;;11.95;;
70002;SDS011;57341;51.984;5.088;2022-08-19T08:23:23;38.45;;;20.15;;
70002;SDS011;57341;51.984;5.088;2022-08-19T08:25:53;38.97;;;20.20;;
70002;SDS011;57341;51.984;5.088;2022-08-19T08:28:23;40.72;;;20.80;;
70002;SDS011;57341;51.984;5.088;2022-08-19T08:30:55;36.88;;;19.42;;
70002;SDS011;57341;51.984;5.088;2022-08-19T08:33:24;33.38;;;18.08;;
70002;SDS011;57341;51.984;5.088;2022-08-19T08:36:06;29.17;;;16.05;;
70002;SDS011;57341;51.984;5.088;2022-08-19T08:38:34;34.35;;;18.85;;
70002;SDS011;57341;51.984;5.088;2022-08-19T08:41:18;29.80;;;15.82;;
70002;SDS011;57341;51.984;5.088;2022-08-19T08:44:05;36.97;;;18.85;;
70002;SDS011;57341;51.984;5.088;2022-08-19T08:46:37;22.73;;;11.45;;
70002;SDS011;57341;51.984;5.088;2022-08-19T08:52:10;24.63;;;12.13;;
70002;SDS011;57341;51.984;5.088;2022-08-19T08:54:45;35.10;;;18.08;;
70002;SDS011;57341;51.984;5.088;2022-08-19T09:00:23;39.85;;;20.35;;
70002;SDS011;57341;51.984;5.088;2022-08-19T09:02:56;42.85;;;20.80;;
70002;SDS011;57341;51.984;5.088;2022-08-19T09:05:26;39.00;;;19.73;;
70002;SDS011;57341;51.984;5.088;2022-08-19T09:08:40;32.05;;;16.08;;
70002;SDS011;57341;51.984;5.088;2022-08-19T09:14:45;28.73;;;14.80;;
70002;SDS011;57341;51.984;5.088;2022-08-19T09:17:20;42.78;;;20.73;;
70002;SDS011;57341;51.984;5.088;2022-08-19T09:19:58;43.08;;;22.10;;
70002;SDS011;57341;51.984;5.088;2022-08-19T09:22:35;34.20;;;16.98;;
70002;SDS011;57341;51.984;5.088;2022-08-19T09:25:07;45.15;;;23.73;;
70002;SDS011;57341;51.984;5.088;2022-08-19T09:27:36;42.00;;;23.27;;
70002;SDS011;57341;51.984;5.088;2022-08-19T09:30:31;44.20;;;24.30;;
70002;SDS011;57341;51.984;5.088;2022-08-19T09:32:58;46.95;;;23.73;;
70002;SDS011;57341;51.984;5.088;2022-08-19T09:35:26;44.30;;;24.45;;
70002;SDS011;57341;51.984;5.088;2022-08-19T09:40:25;48.97;;;27.10;;
70002;SDS011;57341;51.984;5.088;2022-08-19T09:42:56;44.45;;;22.40;;
70002;SDS011;57341;51.984;5.088;2022-08-19T09:45:35;48.25;;;23.35;;
70002;SDS011;57341;51.984;5.088;2022-08-19T09:48:02;43.42;;;23.10;;
70002;SDS011;57341;51.984;5.088;2022-08-19T09:50:29;32.45;;;15.57;;
70002;SDS011;57341;51.984;5.088;2022-08-19T09:53:00;43.58;;;23.48;;
70002;SDS011;57341;51.984;5.088;2022-08-19T09:55:27;41.53;;;22.42;;
70002;SDS011;57341;51.984;5.088;2022-08-19T09:57:57;48.47;;;24.13;;
70002;SDS011;57341;51.984;5.088;2022-08-19T10:00:28;46.10;;;20.38;;
70002;SDS011;57341;51.984;5.088;2022-08-19T10:02:57;46.95;;;25.17;;
70002;SDS011;57341;51.984;5.088;2022-08-19T10:05:24;42.33;;;23.30;;
70002;SDS011;57341;51.984;5.088;2022-08-19T10:08:14;36.28;;;18.20;;
70002;SDS011;57341;51.984;5.088;2022-08-19T10:10:55;44.05;;;23.13;;
70002;SDS011;57341;51.984;5.088;2022-08-19T10:13:25;40.97;;;20.25;;
70002;SDS011;57341;51.984;5.088;2022-08-19T10:15:53;36.83;;;19.58;;
70002;SDS011;57341;51.984;5.088;2022-08-19T10:18:23;43.55;;;22.20;;
70002;SDS011;57341;51.984;5.088;2022-08-19T10:20:52;38.38;;;21.05;;
70002;SDS011;57341;51.984;5.088;2022-08-19T10:23:28;38.97;;;22.85;;
70002;SDS011;57341;51.984;5.088;2022-08-19T10:25:59;31.13;;;17.23;;
70002;SDS011;57341;51.984;5.088;2022-08-19T10:28:26;29.20;;;16.30;;
70002;SDS011;57341;51.984;5.088;2022-08-19T10:30:55;38.28;;;23.33;;
70002;SDS011;57341;51.984;5.088;2022-08-19T10:33:22;39.72;;;23.13;;
70002;SDS011;57341;51.984;5.088;2022-08-19T10:38:45;37.25;;;22.58;;
70002;SDS011;57341;51.984;5.088;2022-08-19T10:41:22;36.45;;;21.40;;
70002;SDS011;57341;51.984;5.088;2022-08-19T10:43:51;34.80;;;23.02;;
70002;SDS011;57341;51.984;5.088;2022-08-19T10:46:21;29.88;;;20.05;;
70002;SDS011;57341;51.984;5.088;2022-08-19T10:48:50;33.60;;;22.70;;
70002;SDS011;57341;51.984;5.088;2022-08-19T10:51:17;32.53;;;21.52;;
70002;SDS011;57341;51.984;5.088;2022-08-19T10:54:13;36.28;;;22.27;;
70002;SDS011;57341;51.984;5.088;2022-08-19T10:56:40;33.20;;;20.13;;
70002;SDS011;57341;51.984;5.088;2022-08-19T10:59:26;33.25;;;17.85;;
70002;SDS011;57341;51.984;5.088;2022-08-19T11:02:01;34.17;;;21.50;;
70002;SDS011;57341;51.984;5.088;2022-08-19T11:04:30;32.30;;;21.33;;
70002;SDS011;57341;51.984;5.088;2022-08-19T11:06:58;30.95;;;18.02;;
70002;SDS011;57341;51.984;5.088;2022-08-19T11:09:25;33.33;;;20.65;;
70002;SDS011;57341;51.984;5.088;2022-08-19T11:11:59;29.02;;;18.83;;
70002;SDS011;57341;51.984;5.088;2022-08-19T11:14:30;26.73;;;14.75;;
70002;SDS011;57341;51.984;5.088;2022-08-19T11:17:00;30.35;;;19.35;;
70002;SDS011;57341;51.984;5.088;2022-08-19T11:19:28;19.05;;;10.50;;
70002;SDS011;57341;51.984;5.088;2022-08-19T11:21:55;31.55;;;21.00;;
70002;SDS011;57341;51.984;5.088;2022-08-19T11:24:25;29.25;;;15.30;;
70002;SDS011;57341;51.984;5.088;2022-08-19T11:26:54;26.98;;;13.50;;
70002;SDS011;57341;51.984;5.088;2022-08-19T11:29:27;33.13;;;20.70;;
70002;SDS011;57341;51.984;5.088;2022-08-19T11:31:55;26.17;;;14.98;;
70002;SDS011;57341;51.984;5.088;2022-08-19T11:34:26;34.30;;;19.75;;
70002;SDS011;57341;51.984;5.088;2022-08-19T11:36:55;30.90;;;16.55;;
70002;SDS011;57341;51.984;5.088;2022-08-19T11:39:26;32.15;;;19.63;;
70002;SDS011;57341;51.984;5.088;2022-08-19T11:41:55;27.05;;;15.23;;
70002;SDS011;57341;51.984;5.088;2022-08-19T11:44:24;32.22;;;20.58;;
70002;SDS011;57341;51.984;5.088;2022-08-19T11:46:52;30.92;;;19.73;;
70002;SDS011;57341;51.984;5.088;2022-08-19T11:49:19;28.35;;;15.30;;
70002;SDS011;57341;51.984;5.088;2022-08-19T11:51:47;18.08;;;9.05;;
70002;SDS011;57341;51.984;5.088;2022-08-19T11:54:19;19.50;;;10.90;;
70002;SDS011;57341;51.984;5.088;2022-08-19T11:56:46;18.85;;;9.73;;
70002;SDS011;57341;51.984;5.088;2022-08-19T11:59:15;17.77;;;8.35;;
70002;SDS011;57341;51.984;5.088;2022-08-19T12:01:42;18.25;;;11.07;;
70002;SDS011;57341;51.984;5.088;2022-08-19T12:04:10;17.67;;;9.63;;
70002;SDS011;57341;51.984;5.088;2022-08-19T12:06:38;12.55;;;4.03;;
70002;SDS011;57341;51.984;5.088;2022-08-19T12:09:07;12.52;;;5.38;;
70002;SDS011;57341;51.984;5.088;2022-08-19T12:11:36;18.70;;;8.63;;
70002;SDS011;57341;51.984;5.088;2022-08-19T12:14:04;16.17;;;8.20;;
70002;SDS011;57341;51.984;5.088;2022-08-19T12:16:32;10.45;;;4.18;;
70002;SDS011;57341;51.984;5.088;2022-08-19T12:19:00;14.75;;;7.13;;
70002;SDS011;57341;51.984;5.088;2022-08-19T12:21:31;9.93;;;4.43;;
70002;SDS011;57341;51.984;5.088;2022-08-19T12:24:01;13.45;;;7.03;;
70002;SDS011;57341;51.984;5.088;2022-08-19T12:28:58;14.38;;;6.38;;
70002;SDS011;57341;51.984;5.088;2022-08-19T12:31:28;15.48;;;8.90;;
70002;SDS011;57341;51.984;5.088;2022-08-19T12:33:56;16.42;;;9.85;;
70002;SDS011;57341;51.984;5.088;2022-08-19T12:36:24;16.73;;;8.73;;
70002;SDS011;57341;51.984;5.088;2022-08-19T12:38:51;13.80;;;6.30;;
70002;SDS011;57341;51.984;5.088;2022-08-19T12:41:18;14.52;;;7.82;;
70002;SDS011;57341;51.984;5.088;2022-08-19T12:43:48;14.30;;;6.40;;
70002;SDS011;57341;51.984;5.088;2022-08-19T12:46:17;11.30;;;5.63;;
70002;SDS011;57341;51.984;5.088;2022-08-19T12:48:48;15.73;;;8.43;;
70002;SDS011;57341;51.984;5.088;2022-08-19T12:51:20;11.75;;;5.68;;
70002;SDS011;57341;51.984;5.088;2022-08-19T12:53:48;12.93;;;5.63;;
70002;SDS011;57341;51.984;5.088;2022-08-19T12:56:16;21.77;;;8.82;;
70002;SDS011;57341;51.984;5.088;2022-08-19T12:58:49;20.30;;;11.85;;
70002;SDS011;57341;51.984;5.088;2022-08-19T13:01:18;29.40;;;11.77;;
70002;SDS011;57341;51.984;5.088;2022-08-19T13:03:49;17.42;;;7.80;;
70002;SDS011;57341;51.984;5.088;2022-08-19T13:06:18;12.82;;;5.53;;
70002;SDS011;57341;51.984;5.088;2022-08-19T13:08:45;10.35;;;3.88;;
70002;SDS011;57341;51.984;5.088;2022-08-19T13:11:16;11.38;;;4.88;;
70002;SDS011;57341;51.984;5.088;2022-08-19T13:13:46;16.25;;;8.70;;
70002;SDS011;57341;51.984;5.088;2022-08-19T13:16:14;23.00;;;10.52;;
70002;SDS011;57341;51.984;5.088;2022-08-19T13:18:42;18.50;;;8.48;;
70002;SDS011;57341;51.984;5.088;2022-08-19T13:21:13;13.50;;;6.28;;
70002;SDS011;57341;51.984;5.088;2022-08-19T13:23:40;12.50;;;5.93;;
70002;SDS011;57341;51.984;5.088;2022-08-19T13:26:07;20.58;;;10.32;;
70002;SDS011;57341;51.984;5.088;2022-08-19T13:28:35;10.15;;;4.53;;
70002;SDS011;57341;51.984;5.088;2022-08-19T13:31:22;21.63;;;11.30;;
70002;SDS011;57341;51.984;5.088;2022-08-19T13:34:09;23.00;;;10.32;;
70002;SDS011;57341;51.984;5.088;2022-08-19T13:36:37;18.60;;;8.80;;
70002;SDS011;57341;51.984;5.088;2022-08-19T13:39:05;13.95;;;6.20;;
70002;SDS011;57341;51.984;5.088;2022-08-19T13:41:33;18.75;;;7.70;;
70002;SDS011;57341;51.984;5.088;2022-08-19T13:44:01;13.48;;;5.47;;
70002;SDS011;57341;51.984;5.088;2022-08-19T13:46:29;13.73;;;5.50;;
70002;SDS011;57341;51.984;5.088;2022-08-19T13:48:56;10.35;;;4.28;;
70002;SDS011;57341;51.984;5.088;2022-08-19T13:51:23;11.52;;;4.95;;
70002;SDS011;57341;51.984;5.088;2022-08-19T13:53:50;10.82;;;5.88;;
70002;SDS011;57341;51.984;5.088;2022-08-19T13:56:18;15.15;;;8.75;;
70002;SDS011;57341;51.984;5.088;2022-08-19T13:58:51;14.70;;;8.40;;
70002;SDS011;57341;51.984;5.088;2022-08-19T14:01:20;12.32;;;6.70;;
70002;SDS011;57341;51.984;5.088;2022-08-19T14:03:52;13.65;;;7.53;;
70002;SDS011;57341;51.984;5.088;2022-08-19T14:06:20;13.85;;;8.15;;
70002;SDS011;57341;51.984;5.088;2022-08-19T14:08:48;16.10;;;9.02;;
70002;SDS011;57341;51.984;5.088;2022-08-19T14:11:15;15.90;;;8.57;;
70002;SDS011;57341;51.984;5.088;2022-08-19T14:13:43;15.40;;;9.10;;
70002;SDS011;57341;51.984;5.088;2022-08-19T14:16:10;17.92;;;9.60;;
70002;SDS011;57341;51.984;5.088;2022-08-19T14:18:39;18.27;;;9.10;;
70002;SDS011;57341;51.984;5.088;2022-08-19T14:21:07;14.15;;;7.60;;
70002;SDS011;57341;51.984;5.088;2022-08-19T14:23:34;13.43;;;6.75;;
70002;SDS011;57341;51.984;5.088;2022-08-19T14:26:06;14.55;;;7.90;;
70002;SDS011;57341;51.984;5.088;2022-08-19T14:28:36;15.25;;;7.93;;
70002;SDS011;57341;51.984;5.088;2022-08-19T14:31:03;14.50;;;7.72;;
70002;SDS011;57341;51.984;5.088;2022-08-19T14:33:30;14.20;;;7.22;;
70002;SDS011;57341;51.984;5.088;2022-08-19T14:35:59;14.00;;;6.85;;
70002;SDS011;57341;51.984;5.088;2022-08-19T14:38:26;13.45;;;6.70;;
70002;SDS011;57341;51.984;5.088;2022-08-19T14:41:07;17.13;;;6.70;;
70002;SDS011;57341;51.984;5.088;2022-08-19T14:43:37;13.90;;;7.60;;
70002;SDS011;57341;51.984;5.088;2022-08-19T14:46:05;14.50;;;7.85;;
70002;SDS011;57341;51.984;5.088;2022-08-19T14:48:32;13.15;;;7.53;;
70002;SDS011;57341;51.984;5.088;2022-08-19T14:50:59;15.60;;;9.13;;
70002;SDS011;57341;51.984;5.088;2022-08-19T14:53:26;14.75;;;8.02;;
70002;SDS011;57341;51.984;5.088;2022-08-19T14:55:53;14.98;;;8.38;;
70002;SDS011;57341;51.984;5.088;2022-08-19T14:58:20;13.68;;;7.15;;
70002;SDS011;57341;51.984;5.088;2022-08-19T15:00:55;17.98;;;8.70;;
70002;SDS011;57341;51.984;5.088;2022-08-19T15:03:23;11.43;;;4.57;;
70002;SDS011;57341;51.984;5.088;2022-08-19T15:05:50;14.73;;;6.75;;
70002;SDS011;57341;51.984;5.088;2022-08-19T15:08:17;15.27;;;6.90;;
70002;SDS011;57341;51.984;5.088;2022-08-19T15:10:44;12.75;;;5.90;;
70002;SDS011;57341;51.984;5.088;2022-08-19T15:13:13;12.23;;;4.80;;